Hentiesbaai, Namibia
Current Conditions -  °F | °C
As of 10:00 AM on Thursday 23 Oct 2014 (Local Time) from FYWE Reporting Station
Few Clouds Few Clouds  
Wind Chill: 84°   Ceiling: Unl
Heat Index: 84°   Visibility: 6mi
Dew Point:   Wind: 7mph
Humidity: 5%   Direction: 300°WNW
Pressure: 30.21"   Gusts: NA
Location:  22.12°S, 14.28°E
Report Text: FYWE 230900Z 30006KT 9999 FEW050 29/M16 Q1023
Loading
Personal Weather Stations






























Interactive Weather Map
Tropical Storm Tracking
New forecast layout! Learn more

10-Day Weather Forecast

Advertisements
Track Severe Weather on mobile